createdAt,value
2023-05-24T00:01:38.670Z,9.88
2023-05-24T00:04:06.678Z,9.85
2023-05-24T00:06:37.090Z,9.76
2023-05-24T00:09:06.293Z,9.63
2023-05-24T00:11:34.199Z,9.78
2023-05-24T00:14:02.004Z,9.66
2023-05-24T00:16:29.854Z,9.82
2023-05-24T00:18:59.190Z,9.83
2023-05-24T00:21:26.966Z,9.84
2023-05-24T00:23:54.800Z,9.76
2023-05-24T00:26:24.088Z,9.70
2023-05-24T00:28:56.819Z,9.50
2023-05-24T00:31:24.707Z,9.41
2023-05-24T00:33:52.932Z,9.43
2023-05-24T00:36:20.924Z,9.48
2023-05-24T00:38:49.033Z,9.37
2023-05-24T00:41:18.101Z,9.37
2023-05-24T00:43:47.579Z,9.40
2023-05-24T00:46:18.987Z,9.41
2023-05-24T00:48:47.582Z,9.21
2023-05-24T00:51:16.012Z,9.14
2023-05-24T00:53:46.781Z,9.07
2023-05-24T00:56:15.597Z,8.99
2023-05-24T00:58:44.265Z,9.06
2023-05-24T01:01:14.465Z,8.90
2023-05-24T01:03:43.367Z,8.87
2023-05-24T01:06:16.112Z,8.71
2023-05-24T01:08:53.624Z,8.76
2023-05-24T01:11:30.354Z,8.72
2023-05-24T01:14:14.456Z,8.79
2023-05-24T01:16:51.742Z,8.69
2023-05-24T01:19:44.906Z,8.68
2023-05-24T01:22:24.469Z,8.54
2023-05-24T01:25:03.720Z,8.60
2023-05-24T01:27:35.548Z,8.65
2023-05-24T01:30:04.705Z,8.56
2023-05-24T01:32:32.968Z,8.42
2023-05-24T01:35:00.806Z,8.51
2023-05-24T01:37:28.619Z,8.45
2023-05-24T01:39:56.640Z,8.37
2023-05-24T01:42:27.413Z,8.35
2023-05-24T01:45:05.724Z,8.43
2023-05-24T01:47:46.450Z,8.39
2023-05-24T01:50:21.667Z,8.30
2023-05-24T01:52:53.073Z,8.28
2023-05-24T01:55:23.259Z,8.24
2023-05-24T01:57:52.499Z,8.28
2023-05-24T02:00:23.096Z,8.29
2023-05-24T02:02:55.087Z,8.21
2023-05-24T02:05:23.324Z,8.16
2023-05-24T02:07:51.462Z,8.05
2023-05-24T02:10:19.340Z,8.03
2023-05-24T02:12:47.524Z,8.13
2023-05-24T02:15:15.463Z,7.97
2023-05-24T02:17:46.033Z,8.01
2023-05-24T02:20:14.726Z,8.01
2023-05-24T02:22:42.561Z,7.93
2023-05-24T02:25:11.152Z,7.89
2023-05-24T02:27:39.432Z,7.98
2023-05-24T02:30:08.867Z,8.01
2023-05-24T02:32:37.067Z,7.92
2023-05-24T02:35:07.696Z,7.88
2023-05-24T02:37:36.631Z,7.85
2023-05-24T02:40:05.318Z,7.77
2023-05-24T02:42:33.737Z,7.77
2023-05-24T02:45:01.579Z,7.67
2023-05-24T02:47:29.596Z,7.57
2023-05-24T02:49:57.634Z,7.63
2023-05-24T02:52:27.187Z,7.58
2023-05-24T02:54:55.080Z,7.66
2023-05-24T02:57:22.998Z,7.77
2023-05-24T02:59:51.615Z,7.71
2023-05-24T03:02:19.562Z,7.65
2023-05-24T03:04:47.445Z,7.56
2023-05-24T03:07:15.411Z,7.68
2023-05-24T03:09:45.521Z,7.62
2023-05-24T03:12:14.081Z,7.58
2023-05-24T03:14:41.876Z,7.58
2023-05-24T03:17:09.706Z,7.68
2023-05-24T03:19:37.531Z,7.65
2023-05-24T03:22:05.626Z,7.73
2023-05-24T03:24:34.436Z,7.72
2023-05-24T03:27:03.777Z,7.69
2023-05-24T03:29:31.703Z,7.57
2023-05-24T03:32:01.511Z,7.71
2023-05-24T03:34:30.264Z,7.65
2023-05-24T03:36:58.355Z,7.70
2023-05-24T03:39:26.369Z,7.79
2023-05-24T03:42:11.188Z,7.80
2023-05-24T03:44:40.071Z,7.82
2023-05-24T03:47:08.236Z,7.85
2023-05-24T03:49:36.197Z,7.73
2023-05-24T03:52:04.009Z,7.92
2023-05-24T03:54:31.844Z,7.89
2023-05-24T03:56:59.822Z,7.90
2023-05-24T03:59:30.779Z,7.89
2023-05-24T04:01:58.579Z,7.84
2023-05-24T04:04:26.588Z,7.92
2023-05-24T04:06:56.172Z,7.85
2023-05-24T04:09:24.704Z,7.84
2023-05-24T04:11:52.807Z,7.85
2023-05-24T04:14:20.612Z,7.98
2023-05-24T04:16:49.941Z,7.91
2023-05-24T04:19:20.310Z,7.97
2023-05-24T04:21:48.453Z,8.06
2023-05-24T04:24:16.425Z,8.05
2023-05-24T04:26:47.651Z,8.06
2023-05-24T04:29:16.121Z,8.15
2023-05-24T04:31:44.937Z,8.19
2023-05-24T04:34:14.697Z,8.16
2023-05-24T04:36:43.011Z,8.21
2023-05-24T04:39:12.638Z,8.23
2023-05-24T04:41:40.648Z,8.29
2023-05-24T04:44:08.609Z,8.32
2023-05-24T04:46:36.984Z,8.38
2023-05-24T04:49:05.776Z,8.60
2023-05-24T04:51:38.481Z,8.71
2023-05-24T04:54:09.115Z,8.61
2023-05-24T04:56:38.514Z,8.81
2023-05-24T04:59:06.849Z,8.84
2023-05-24T05:01:38.020Z,8.91
2023-05-24T05:04:06.112Z,9.10
2023-05-24T05:06:38.967Z,9.14
2023-05-24T05:09:09.440Z,9.16
2023-05-24T05:11:37.249Z,9.28
2023-05-24T05:14:05.086Z,9.31
2023-05-24T05:16:33.423Z,9.38
2023-05-24T05:19:01.524Z,9.49
2023-05-24T05:21:29.365Z,9.60
2023-05-24T05:23:58.571Z,9.65
2023-05-24T05:26:27.061Z,9.72
2023-05-24T05:28:55.731Z,9.87
2023-05-24T05:31:23.906Z,9.89
2023-05-24T05:33:51.715Z,9.99
2023-05-24T05:36:20.033Z,10.08
2023-05-24T05:38:48.235Z,10.12
2023-05-24T05:41:17.343Z,10.19
2023-05-24T05:43:45.159Z,10.21
2023-05-24T05:46:15.834Z,10.16
2023-05-24T05:48:45.677Z,10.33
2023-05-24T05:51:14.277Z,10.41
2023-05-24T05:53:42.111Z,10.43
2023-05-24T05:56:10.070Z,10.49
2023-05-24T05:58:39.444Z,10.50
2023-05-24T06:01:07.210Z,10.35
2023-05-24T06:03:35.098Z,10.22
2023-05-24T06:06:03.054Z,10.41
2023-05-24T06:08:34.925Z,10.41
2023-05-24T06:11:03.113Z,10.40
2023-05-24T06:13:31.361Z,10.46
2023-05-24T06:16:01.354Z,10.50
2023-05-24T06:18:30.486Z,10.49
2023-05-24T06:20:58.554Z,10.49
2023-05-24T06:23:26.803Z,10.60
2023-05-24T06:25:54.642Z,10.70
2023-05-24T06:28:22.746Z,10.63
2023-05-24T06:30:50.929Z,10.74
2023-05-24T06:33:20.871Z,10.84
2023-05-24T06:35:48.926Z,10.65
2023-05-24T06:38:18.052Z,10.87
2023-05-24T06:40:45.847Z,10.94
2023-05-24T06:43:13.674Z,11.27
2023-05-24T06:45:41.963Z,11.29
2023-05-24T06:48:09.917Z,11.66
2023-05-24T06:50:42.360Z,11.59
2023-05-24T06:53:10.956Z,11.70
2023-05-24T06:55:38.772Z,11.76
2023-05-24T06:58:07.914Z,12.02
2023-05-24T07:00:35.748Z,11.95
2023-05-24T07:03:05.390Z,11.87
2023-05-24T07:05:33.210Z,11.79
2023-05-24T07:08:02.509Z,11.78
2023-05-24T07:10:30.264Z,11.70
2023-05-24T07:12:58.088Z,11.73
2023-05-24T07:15:26.182Z,11.81
2023-05-24T07:17:54.499Z,11.87
2023-05-24T07:20:22.983Z,11.82
2023-05-24T07:22:51.986Z,11.70
2023-05-24T07:25:22.184Z,11.79
2023-05-24T07:27:51.006Z,11.82
2023-05-24T07:30:31.030Z,12.00
2023-05-24T07:33:00.490Z,11.92
2023-05-24T07:35:29.375Z,12.06
2023-05-24T07:37:57.689Z,11.94
2023-05-24T07:40:27.628Z,12.26
2023-05-24T07:42:55.477Z,12.25
2023-05-24T07:45:23.678Z,12.25
2023-05-24T07:47:52.362Z,12.39
2023-05-24T07:50:22.525Z,12.35
2023-05-24T07:52:51.283Z,12.42
2023-05-24T07:55:19.226Z,12.59
2023-05-24T07:57:48.601Z,12.77
2023-05-24T08:00:17.524Z,12.82
2023-05-24T08:02:46.808Z,12.84
2023-05-24T08:05:15.502Z,12.92
2023-05-24T08:07:43.329Z,13.16
2023-05-24T08:10:12.544Z,13.06
2023-05-24T08:12:40.709Z,12.73
2023-05-24T08:15:10.811Z,12.71
2023-05-24T08:17:39.299Z,12.82
2023-05-24T08:20:09.759Z,13.10
2023-05-24T08:22:38.283Z,13.17
2023-05-24T08:25:07.202Z,13.34
2023-05-24T08:27:35.068Z,13.22
2023-05-24T08:30:04.249Z,13.24
2023-05-24T08:32:33.781Z,13.30
2023-05-24T08:35:18.608Z,13.50
2023-05-24T08:37:49.267Z,13.54
2023-05-24T08:40:17.972Z,13.20
2023-05-24T08:42:46.784Z,13.21
2023-05-24T08:45:16.468Z,13.29
2023-05-24T08:47:46.726Z,13.26
2023-05-24T08:50:14.887Z,13.70
2023-05-24T08:52:45.088Z,13.49
2023-05-24T08:55:13.104Z,13.30
2023-05-24T08:57:41.912Z,13.41
2023-05-24T09:00:12.752Z,13.62
2023-05-24T09:02:42.739Z,13.54
2023-05-24T09:05:14.431Z,13.47
2023-05-24T09:07:44.144Z,13.59
2023-05-24T09:10:12.730Z,13.63
2023-05-24T09:12:44.891Z,13.60
2023-05-24T09:15:13.146Z,13.47
2023-05-24T09:17:41.624Z,13.36
2023-05-24T09:20:11.796Z,13.34
2023-05-24T09:22:43.932Z,13.35
2023-05-24T09:25:14.851Z,13.25
2023-05-24T09:27:47.494Z,13.30
2023-05-24T09:30:17.164Z,13.42
2023-05-24T09:32:56.370Z,13.41
2023-05-24T09:35:24.381Z,13.51
2023-05-24T09:37:55.409Z,13.40
2023-05-24T09:40:23.419Z,13.58
2023-05-24T09:43:04.045Z,13.72
2023-05-24T09:45:32.452Z,13.75
2023-05-24T09:48:00.852Z,13.85
2023-05-24T09:50:29.011Z,13.61
2023-05-24T09:52:58.193Z,13.42
2023-05-24T09:55:28.509Z,13.67
2023-05-24T09:58:04.686Z,13.90
2023-05-24T10:00:36.765Z,14.08
2023-05-24T10:03:07.314Z,13.93
2023-05-24T10:05:36.478Z,13.83
2023-05-24T10:08:06.230Z,13.72
2023-05-24T10:10:34.927Z,13.80
2023-05-24T10:13:03.507Z,13.91
2023-05-24T10:15:31.752Z,13.79
2023-05-24T10:18:00.031Z,13.76
2023-05-24T10:20:28.376Z,13.89
2023-05-24T10:23:00.907Z,14.00
2023-05-24T10:25:32.172Z,13.78
2023-05-24T10:28:03.598Z,13.98
2023-05-24T10:30:37.606Z,14.07
2023-05-24T10:33:09.523Z,14.20
2023-05-24T10:35:38.398Z,14.23
2023-05-24T10:38:08.461Z,14.43
2023-05-24T10:40:42.812Z,14.41
2023-05-24T10:43:11.690Z,14.41
2023-05-24T10:45:40.997Z,14.41
2023-05-24T10:48:36.185Z,14.70
2023-05-24T10:51:32.775Z,14.65
2023-05-24T10:54:13.578Z,14.43
2023-05-24T10:56:47.158Z,14.35
2023-05-24T10:59:29.080Z,14.27
2023-05-24T11:01:59.090Z,14.11
2023-05-24T11:04:27.405Z,14.24
2023-05-24T11:07:01.781Z,14.11
2023-05-24T11:09:29.891Z,14.18
2023-05-24T11:12:04.527Z,14.09
2023-05-24T11:14:33.229Z,13.96
2023-05-24T11:17:02.020Z,13.84
2023-05-24T11:19:35.371Z,13.89
2023-05-24T11:22:05.388Z,13.91
2023-05-24T11:24:34.340Z,13.73
2023-05-24T11:27:03.887Z,13.96
2023-05-24T11:29:31.849Z,13.70
2023-05-24T11:32:04.593Z,13.65
2023-05-24T11:34:34.231Z,13.72
2023-05-24T11:37:03.462Z,13.84
2023-05-24T11:39:32.928Z,13.90
2023-05-24T11:42:01.493Z,14.05
2023-05-24T11:44:33.524Z,14.17
2023-05-24T11:47:01.684Z,14.25
2023-05-24T11:49:30.012Z,14.35
2023-05-24T11:51:59.272Z,14.55
2023-05-24T11:54:28.574Z,14.34
2023-05-24T11:56:56.762Z,14.29
2023-05-24T11:59:26.434Z,14.43
2023-05-24T12:02:02.654Z,14.50
2023-05-24T12:04:31.363Z,14.85
2023-05-24T12:06:59.618Z,15.13
2023-05-24T12:09:28.728Z,14.92
2023-05-24T12:11:58.206Z,14.75
2023-05-24T12:14:31.085Z,14.95
2023-05-24T12:16:59.953Z,14.69
2023-05-24T12:19:35.141Z,14.71
2023-05-24T12:22:07.463Z,14.82
2023-05-24T12:24:36.263Z,14.53
2023-05-24T12:27:10.925Z,14.83
2023-05-24T12:29:41.567Z,14.94
2023-05-24T12:32:14.615Z,15.01
2023-05-24T12:34:46.058Z,15.03
2023-05-24T12:37:17.843Z,15.05
2023-05-24T12:39:48.535Z,15.10
2023-05-24T12:42:17.180Z,15.17
2023-05-24T12:44:45.846Z,15.21
2023-05-24T12:47:14.373Z,15.29
2023-05-24T12:49:43.449Z,15.52
2023-05-24T12:52:13.448Z,15.41
2023-05-24T12:54:42.048Z,15.44
2023-05-24T12:57:10.195Z,15.23
2023-05-24T12:59:38.434Z,15.01
2023-05-24T13:02:08.888Z,15.08
2023-05-24T13:04:39.979Z,15.14
2023-05-24T13:07:08.394Z,15.21
2023-05-24T13:09:37.958Z,15.24
2023-05-24T13:12:07.094Z,15.38
2023-05-24T13:14:36.103Z,15.17
2023-05-24T13:17:04.452Z,15.21
2023-05-24T13:19:33.072Z,15.01
2023-05-24T13:22:01.194Z,15.04
2023-05-24T13:24:29.670Z,15.31
2023-05-24T13:26:59.494Z,15.21
2023-05-24T13:29:39.404Z,15.10
2023-05-24T13:32:14.216Z,15.09
2023-05-24T13:34:43.415Z,15.33
2023-05-24T13:37:12.067Z,15.35
2023-05-24T13:39:40.828Z,15.36
2023-05-24T13:42:11.246Z,15.37
2023-05-24T13:44:40.163Z,15.48
2023-05-24T13:47:09.700Z,15.43
2023-05-24T13:49:40.274Z,15.39
2023-05-24T13:52:08.488Z,15.34
2023-05-24T13:54:36.737Z,15.49
2023-05-24T13:57:06.762Z,15.51
2023-05-24T13:59:36.480Z,15.47
2023-05-24T14:02:04.804Z,15.31
2023-05-24T14:04:33.199Z,15.28
2023-05-24T14:07:01.477Z,15.34
2023-05-24T14:09:29.813Z,15.40
2023-05-24T14:11:58.126Z,15.23
2023-05-24T14:16:59.257Z,15.18
2023-05-24T14:19:28.392Z,15.47
2023-05-24T14:21:56.540Z,15.23
2023-05-24T14:24:25.247Z,15.29
2023-05-24T14:26:53.590Z,15.20
2023-05-24T14:29:22.027Z,15.23
2023-05-24T14:31:50.836Z,15.35
2023-05-24T14:34:20.679Z,15.38
2023-05-24T14:36:48.752Z,15.10
2023-05-24T14:39:17.400Z,15.07
2023-05-24T14:41:45.985Z,15.33
2023-05-24T14:44:14.087Z,15.08
2023-05-24T14:46:42.819Z,15.01
2023-05-24T14:49:11.065Z,14.99
2023-05-24T14:51:40.969Z,14.80
2023-05-24T14:54:12.132Z,14.80
2023-05-24T14:56:42.715Z,14.74
2023-05-24T14:59:11.360Z,14.73
2023-05-24T15:01:40.680Z,14.89
2023-05-24T15:04:11.514Z,14.77
2023-05-24T15:06:41.382Z,14.69
2023-05-24T15:09:09.704Z,14.59
2023-05-24T15:11:37.997Z,14.59
2023-05-24T15:14:06.337Z,14.65
2023-05-24T15:16:34.789Z,14.67
2023-05-24T15:19:02.924Z,14.77
2023-05-24T15:21:31.377Z,14.82
2023-05-24T15:24:01.197Z,14.83
2023-05-24T15:26:30.284Z,14.93
2023-05-24T15:29:01.218Z,14.79
2023-05-24T15:31:29.353Z,14.79
2023-05-24T15:33:57.273Z,14.83
2023-05-24T15:36:25.434Z,14.91
2023-05-24T15:38:53.606Z,15.07
2023-05-24T15:41:23.200Z,14.95
2023-05-24T15:43:52.141Z,15.05
2023-05-24T15:46:22.539Z,14.99
2023-05-24T15:48:50.551Z,15.09
2023-05-24T15:53:49.145Z,15.02
2023-05-24T15:56:17.022Z,15.11
2023-05-24T15:58:47.049Z,15.12
2023-05-24T16:01:15.062Z,14.89
2023-05-24T16:03:46.495Z,14.98
2023-05-24T16:06:15.696Z,15.09
2023-05-24T16:08:44.252Z,14.91
2023-05-24T16:11:13.589Z,15.18
2023-05-24T16:13:41.637Z,15.10
2023-05-24T16:16:10.846Z,15.02
2023-05-24T16:18:39.046Z,14.98
2023-05-24T16:21:06.764Z,15.04
2023-05-24T16:23:34.619Z,14.98
2023-05-24T16:26:02.406Z,14.98
2023-05-24T16:28:30.162Z,14.85
2023-05-24T16:30:58.882Z,14.88
2023-05-24T16:33:28.146Z,15.01
2023-05-24T16:36:02.864Z,14.95
2023-05-24T16:38:31.243Z,14.97
2023-05-24T16:40:58.944Z,14.99
2023-05-24T16:43:45.614Z,15.09
2023-05-24T16:46:13.495Z,15.08
2023-05-24T16:48:42.891Z,15.06
2023-05-24T16:51:10.702Z,15.02
2023-05-24T16:53:38.797Z,15.00
2023-05-24T16:56:06.989Z,15.03
2023-05-24T16:58:34.787Z,15.06
2023-05-24T17:01:02.553Z,15.06
2023-05-24T17:03:32.817Z,14.86
2023-05-24T17:06:05.012Z,15.01
2023-05-24T17:08:34.514Z,15.05
2023-05-24T17:11:02.620Z,15.03
2023-05-24T17:13:30.811Z,15.07
2023-05-24T17:16:00.050Z,14.91
2023-05-24T17:18:31.116Z,14.96
2023-05-24T17:21:00.384Z,14.87
2023-05-24T17:23:31.849Z,14.87
2023-05-24T17:26:01.013Z,14.89
2023-05-24T17:28:29.449Z,14.80
2023-05-24T17:30:58.859Z,14.80
2023-05-24T17:33:28.331Z,14.80
2023-05-24T17:35:57.734Z,14.87
2023-05-24T17:38:26.228Z,14.87
2023-05-24T17:40:59.716Z,14.78
2023-05-24T17:43:31.746Z,14.75
2023-05-24T17:46:03.806Z,14.67
2023-05-24T17:48:32.721Z,14.57
2023-05-24T17:51:01.884Z,14.60
2023-05-24T17:53:32.104Z,14.57
2023-05-24T17:56:02.450Z,14.66
2023-05-24T17:58:35.712Z,14.65
2023-05-24T18:01:05.253Z,14.60
2023-05-24T18:03:33.659Z,14.59
2023-05-24T18:06:03.938Z,14.55
2023-05-24T18:08:31.964Z,14.61
2023-05-24T18:11:03.616Z,14.57
2023-05-24T18:13:31.576Z,14.62
2023-05-24T18:15:59.737Z,14.63
2023-05-24T18:18:29.587Z,14.66
2023-05-24T18:20:57.451Z,14.64
2023-05-24T18:23:25.947Z,14.64
2023-05-24T18:26:00.894Z,14.57
2023-05-24T18:28:32.735Z,14.66
2023-05-24T18:31:00.905Z,14.68
2023-05-24T18:33:28.757Z,14.62
2023-05-24T18:35:56.916Z,14.57
2023-05-24T18:38:24.825Z,14.61
2023-05-24T18:40:52.966Z,14.69
2023-05-24T18:43:20.733Z,14.67
2023-05-24T18:45:49.987Z,14.67
2023-05-24T18:48:17.750Z,14.65
2023-05-24T18:50:45.899Z,14.65
2023-05-24T18:53:13.979Z,14.57
2023-05-24T18:55:41.878Z,14.60
2023-05-24T18:58:10.080Z,14.57
2023-05-24T19:00:37.853Z,14.55
2023-05-24T19:03:10.834Z,14.51
2023-05-24T19:05:40.644Z,14.50
2023-05-24T19:08:10.603Z,14.50
2023-05-24T19:10:38.420Z,14.46
2023-05-24T19:13:07.212Z,14.45
2023-05-24T19:15:36.564Z,14.41
2023-05-24T19:18:04.577Z,14.37
2023-05-24T19:20:34.357Z,14.32
2023-05-24T19:23:02.300Z,14.27
2023-05-24T19:25:31.177Z,14.23
2023-05-24T19:28:00.497Z,14.14
2023-05-24T19:30:29.196Z,14.11
2023-05-24T19:32:57.061Z,14.10
2023-05-24T19:35:24.949Z,14.00
2023-05-24T19:37:54.139Z,13.98
2023-05-24T19:40:22.026Z,13.97
2023-05-24T19:42:50.317Z,13.91
2023-05-24T19:45:18.173Z,13.86
2023-05-24T19:47:46.541Z,13.83
2023-05-24T19:50:14.343Z,13.72
2023-05-24T19:52:42.146Z,13.70
2023-05-24T19:55:11.715Z,13.68
2023-05-24T19:57:39.483Z,13.59
2023-05-24T20:00:09.378Z,13.52
2023-05-24T20:02:40.526Z,13.45
2023-05-24T20:05:09.198Z,13.37
2023-05-24T20:07:37.212Z,13.30
2023-05-24T20:10:05.917Z,13.30
2023-05-24T20:12:35.351Z,13.28
2023-05-24T20:15:03.347Z,13.26
2023-05-24T20:17:31.402Z,13.21
2023-05-24T20:19:59.443Z,13.22
2023-05-24T20:22:27.242Z,13.14
2023-05-24T20:24:55.172Z,13.17
2023-05-24T20:27:22.991Z,13.02
2023-05-24T20:29:52.274Z,12.99
2023-05-24T20:32:20.291Z,12.97
2023-05-24T20:34:48.067Z,12.97
2023-05-24T20:37:16.004Z,13.03
2023-05-24T20:39:45.055Z,12.99
2023-05-24T20:42:12.948Z,12.95
2023-05-24T20:44:40.753Z,12.92
2023-05-24T20:47:10.188Z,12.85
2023-05-24T20:49:38.035Z,12.90
2023-05-24T20:52:06.254Z,12.78
2023-05-24T20:54:34.185Z,12.69
2023-05-24T20:57:02.786Z,12.68
2023-05-24T20:59:30.845Z,12.64
2023-05-24T21:01:58.590Z,12.57
2023-05-24T21:04:27.887Z,12.57
2023-05-24T21:06:56.247Z,12.53
2023-05-24T21:09:24.040Z,12.51
2023-05-24T21:11:51.887Z,12.39
2023-05-24T21:14:19.778Z,12.43
2023-05-24T21:16:47.652Z,12.37
2023-05-24T21:19:15.573Z,12.22
2023-05-24T21:21:44.796Z,12.22
2023-05-24T21:24:12.579Z,12.06
2023-05-24T21:26:40.485Z,11.96
2023-05-24T21:29:08.410Z,11.98
2023-05-24T21:31:36.263Z,11.97
2023-05-24T21:34:04.302Z,11.99
2023-05-24T21:36:32.461Z,11.92
2023-05-24T21:39:07.394Z,11.88
2023-05-24T21:41:35.642Z,11.70
2023-05-24T21:44:03.952Z,11.69
2023-05-24T21:46:33.566Z,11.69
2023-05-24T21:49:01.457Z,11.65
2023-05-24T21:51:29.488Z,11.66
2023-05-24T21:53:57.439Z,11.60
2023-05-24T21:56:27.063Z,11.47
2023-05-24T21:58:54.915Z,11.46
2023-05-24T22:01:22.742Z,11.46
2023-05-24T22:03:50.705Z,11.41
2023-05-24T22:06:18.555Z,11.35
2023-05-24T22:08:46.609Z,11.31
2023-05-24T22:11:14.768Z,11.24
2023-05-24T22:13:44.040Z,11.23
2023-05-24T22:16:11.850Z,11.23
2023-05-24T22:18:40.037Z,11.12
2023-05-24T22:21:07.851Z,11.10
2023-05-24T22:23:35.776Z,10.97
2023-05-24T22:26:03.619Z,10.98
2023-05-24T22:28:49.505Z,11.01
2023-05-24T22:31:19.824Z,10.95
2023-05-24T22:33:47.913Z,10.97
2023-05-24T22:36:16.085Z,10.90
2023-05-24T22:38:45.192Z,10.81
2023-05-24T22:41:13.049Z,10.83
2023-05-24T22:44:12.681Z,10.82
2023-05-24T22:46:41.899Z,10.77
2023-05-24T22:49:13.056Z,10.70
2023-05-24T22:51:44.416Z,10.68
2023-05-24T22:54:12.921Z,10.72
2023-05-24T22:56:40.733Z,10.67
2023-05-24T22:59:08.801Z,10.74
2023-05-24T23:01:36.611Z,10.69
2023-05-24T23:04:19.677Z,10.63
2023-05-24T23:06:48.800Z,10.63
2023-05-24T23:09:17.536Z,10.59
2023-05-24T23:11:46.058Z,10.68
2023-05-24T23:14:14.114Z,10.64
2023-05-24T23:16:45.693Z,10.64
2023-05-24T23:19:18.318Z,10.63
2023-05-24T23:21:47.257Z,10.62
2023-05-24T23:24:15.659Z,10.65
2023-05-24T23:26:43.823Z,10.66
2023-05-24T23:29:11.750Z,10.61
2023-05-24T23:31:39.822Z,10.61
2023-05-24T23:34:08.432Z,10.57
2023-05-24T23:36:37.798Z,10.54
2023-05-24T23:39:06.104Z,10.43
2023-05-24T23:41:33.989Z,10.39
2023-05-24T23:44:01.725Z,10.46
2023-05-24T23:46:29.514Z,10.51
2023-05-24T23:48:57.333Z,10.49
2023-05-24T23:51:25.329Z,10.50
2023-05-24T23:53:54.966Z,10.48
2023-05-24T23:56:23.210Z,10.48
2023-05-24T23:58:50.992Z,10.48
